createdAt,value
2022-08-20T00:02:08.787Z,92347.94
2022-08-20T00:04:36.115Z,92344.03
2022-08-20T00:07:06.898Z,92345.38
2022-08-20T00:09:34.180Z,92336.47
2022-08-20T00:12:04.118Z,92333.00
2022-08-20T00:14:31.400Z,92343.97
2022-08-20T00:17:01.335Z,92342.06
2022-08-20T00:19:28.642Z,92341.22
2022-08-20T00:21:58.127Z,92340.69
2022-08-20T00:24:25.793Z,92329.66
2022-08-20T00:26:53.126Z,92332.84
2022-08-20T00:29:20.515Z,92330.97
2022-08-20T00:31:49.663Z,92335.03
2022-08-20T00:34:16.953Z,92324.53
2022-08-20T00:36:46.287Z,92334.88
2022-08-20T00:39:13.590Z,92321.84
2022-08-20T00:41:40.901Z,92325.97
2022-08-20T00:44:08.189Z,92325.41
2022-08-20T00:46:35.501Z,92317.88
2022-08-20T00:49:02.818Z,92324.44
2022-08-20T00:51:30.127Z,92331.28
2022-08-20T00:53:57.445Z,92323.53
2022-08-20T00:56:24.723Z,92322.53
2022-08-20T00:58:53.336Z,92322.44
2022-08-20T01:01:20.654Z,92317.84
2022-08-20T01:03:47.973Z,92322.47
2022-08-20T01:06:15.285Z,92330.69
2022-08-20T01:08:44.657Z,92323.13
2022-08-20T01:11:11.940Z,92324.84
2022-08-20T01:13:39.234Z,92322.00
2022-08-20T01:16:08.549Z,92323.84
2022-08-20T01:18:35.863Z,92319.22
2022-08-20T01:21:03.169Z,92318.50
2022-08-20T01:23:30.549Z,92324.59
2022-08-20T01:25:57.874Z,92315.03
2022-08-20T01:28:25.181Z,92327.09
2022-08-20T01:30:52.473Z,92319.13
2022-08-20T01:33:19.773Z,92308.06
2022-08-20T01:35:47.079Z,92309.88
2022-08-20T01:38:14.395Z,92309.63
2022-08-20T01:40:41.713Z,92319.66
2022-08-20T01:43:09.012Z,92316.56
2022-08-20T01:45:37.257Z,92316.13
2022-08-20T01:48:07.439Z,92317.72
2022-08-20T01:50:34.719Z,92316.16
2022-08-20T01:53:02.679Z,92319.66
2022-08-20T01:55:29.985Z,92324.91
2022-08-20T01:57:57.476Z,92326.75
2022-08-20T02:00:24.949Z,92319.66
2022-08-20T02:02:52.232Z,92310.69
2022-08-20T02:05:19.529Z,92305.06
2022-08-20T02:07:46.839Z,92307.56
2022-08-20T02:10:14.149Z,92307.41
2022-08-20T02:12:41.450Z,92308.84
2022-08-20T02:15:08.766Z,92307.81
2022-08-20T02:17:36.259Z,92305.94
2022-08-20T02:20:03.559Z,92302.72
2022-08-20T02:22:30.878Z,92294.31
2022-08-20T02:24:58.173Z,92290.34
2022-08-20T02:27:25.456Z,92299.44
2022-08-20T02:29:52.802Z,92294.38
2022-08-20T02:32:24.491Z,92283.56
2022-08-20T02:35:01.381Z,92292.38
2022-08-20T02:37:28.706Z,92294.16
2022-08-20T02:39:56.006Z,92294.50
2022-08-20T02:42:23.324Z,92291.31
2022-08-20T02:44:50.631Z,92291.59
2022-08-20T02:47:17.950Z,92287.91
2022-08-20T02:49:45.245Z,92287.72
2022-08-20T02:52:12.689Z,92279.59
2022-08-20T02:54:39.978Z,92280.16
2022-08-20T02:57:07.270Z,92275.72
2022-08-20T02:59:34.568Z,92277.19
2022-08-20T03:02:01.903Z,92283.66
2022-08-20T03:04:29.348Z,92298.41
2022-08-20T03:06:56.672Z,92288.63
2022-08-20T03:09:23.958Z,92292.81
2022-08-20T03:11:51.309Z,92288.72
2022-08-20T03:14:18.597Z,92288.19
2022-08-20T03:16:45.879Z,92294.16
2022-08-20T03:19:13.176Z,92294.00
2022-08-20T03:21:40.466Z,92287.66
2022-08-20T03:24:07.863Z,92293.16
2022-08-20T03:26:35.158Z,92291.63
2022-08-20T03:29:02.457Z,92294.19
2022-08-20T03:31:29.775Z,92292.53
2022-08-20T03:33:57.064Z,92295.19
2022-08-20T03:36:27.798Z,92293.84
2022-08-20T03:38:55.891Z,92298.84
2022-08-20T03:41:23.207Z,92297.59
2022-08-20T03:43:50.507Z,92293.13
2022-08-20T03:46:22.225Z,92298.97
2022-08-20T03:48:56.601Z,92290.50
2022-08-20T03:51:27.789Z,92305.09
2022-08-20T03:53:55.088Z,92285.16
2022-08-20T03:56:22.395Z,92291.78
2022-08-20T03:58:49.722Z,92290.63
2022-08-20T04:01:45.258Z,92295.84
2022-08-20T04:04:04.298Z,92292.06
2022-08-20T04:06:31.616Z,92291.97
2022-08-20T04:08:58.936Z,92298.25
2022-08-20T04:11:26.200Z,92293.28
2022-08-20T04:14:17.357Z,92300.97
2022-08-20T04:16:49.096Z,92308.78
2022-08-20T04:19:16.552Z,92305.75
2022-08-20T04:21:43.823Z,92300.94
2022-08-20T04:24:21.989Z,92296.53
2022-08-20T04:26:58.430Z,92287.66
2022-08-20T04:29:26.029Z,92295.09
2022-08-20T04:31:59.588Z,92288.09
2022-08-20T04:34:26.885Z,92295.78
2022-08-20T04:36:54.170Z,92290.09
2022-08-20T04:39:21.439Z,92287.47
2022-08-20T04:41:48.824Z,92296.50
2022-08-20T04:44:16.101Z,92291.09
2022-08-20T04:46:43.374Z,92296.53
2022-08-20T04:49:10.686Z,92293.03
2022-08-20T04:51:37.990Z,92295.53
2022-08-20T04:54:05.292Z,92297.94
2022-08-20T04:56:32.596Z,92299.63
2022-08-20T04:58:59.873Z,92303.47
2022-08-20T05:01:27.187Z,92312.28
2022-08-20T05:03:54.523Z,92312.34
2022-08-20T05:06:21.802Z,92317.16
2022-08-20T05:08:49.081Z,92315.94
2022-08-20T05:11:34.138Z,92322.00
2022-08-20T05:14:03.913Z,92324.84
2022-08-20T05:16:31.204Z,92323.84
2022-08-20T05:18:58.494Z,92321.53
2022-08-20T05:21:25.779Z,92324.41
2022-08-20T05:23:53.083Z,92333.41
2022-08-20T05:26:20.482Z,92333.94
2022-08-20T05:28:58.373Z,92326.88
2022-08-20T05:31:31.838Z,92337.47
2022-08-20T05:34:00.449Z,92339.63
2022-08-20T05:36:28.015Z,92358.06
2022-08-20T05:38:55.311Z,92344.41
2022-08-20T05:41:28.901Z,92344.38
2022-08-20T05:43:57.214Z,92342.97
2022-08-20T05:46:24.499Z,92344.09
2022-08-20T05:48:51.801Z,92342.34
2022-08-20T05:51:19.128Z,92345.22
2022-08-20T05:53:46.411Z,92354.22
2022-08-20T05:56:13.712Z,92355.53
2022-08-20T05:58:41.037Z,92352.69
2022-08-20T06:01:08.363Z,92358.56
2022-08-20T06:03:35.688Z,92358.19
2022-08-20T06:06:03.200Z,92350.78
2022-08-20T06:08:30.493Z,92354.53
2022-08-20T06:10:57.776Z,92348.19
2022-08-20T06:13:25.074Z,92348.47
2022-08-20T06:15:52.358Z,92357.75
2022-08-20T06:18:27.954Z,92352.75
2022-08-20T06:20:58.135Z,92357.69
2022-08-20T06:23:25.449Z,92352.91
2022-08-20T06:25:52.870Z,92352.56
2022-08-20T06:28:20.175Z,92354.44
2022-08-20T06:30:47.493Z,92360.09
2022-08-20T06:33:14.776Z,92364.41
2022-08-20T06:35:42.113Z,92363.91
2022-08-20T06:38:09.414Z,92362.81
2022-08-20T06:40:38.723Z,92356.94
2022-08-20T06:43:05.995Z,92359.78
2022-08-20T06:45:33.323Z,92364.94
2022-08-20T06:48:00.620Z,92356.25
2022-08-20T06:50:27.914Z,92353.13
2022-08-20T06:52:55.308Z,92355.31
2022-08-20T06:55:22.574Z,92360.06
2022-08-20T06:57:49.850Z,92359.00
2022-08-20T07:00:17.155Z,92364.31
2022-08-20T07:02:44.445Z,92360.06
2022-08-20T07:05:11.717Z,92363.69
2022-08-20T07:07:39.031Z,92360.00
2022-08-20T07:10:06.317Z,92359.66
2022-08-20T07:12:33.595Z,92362.25
2022-08-20T07:15:00.919Z,92357.00
2022-08-20T07:17:29.917Z,92361.25
2022-08-20T07:19:57.197Z,92362.22
2022-08-20T07:22:24.479Z,92365.66
2022-08-20T07:24:51.753Z,92376.69
2022-08-20T07:27:19.048Z,92369.38
2022-08-20T07:29:46.319Z,92374.69
2022-08-20T07:32:13.606Z,92369.03
2022-08-20T07:34:41.053Z,92381.06
2022-08-20T07:37:12.020Z,92378.41
2022-08-20T07:39:39.388Z,92379.78
2022-08-20T07:42:07.103Z,92376.59
2022-08-20T07:44:34.368Z,92383.00
2022-08-20T07:47:01.662Z,92384.78
2022-08-20T07:49:30.409Z,92385.06
2022-08-20T07:51:57.680Z,92382.25
2022-08-20T07:54:24.957Z,92389.75
2022-08-20T07:56:52.265Z,92385.34
2022-08-20T07:59:19.575Z,92396.31
2022-08-20T08:01:46.935Z,92393.72
2022-08-20T08:04:14.222Z,92400.41
2022-08-20T08:06:41.497Z,92398.69
2022-08-20T08:09:08.791Z,92397.19
2022-08-20T08:11:36.080Z,92395.59
2022-08-20T08:14:03.397Z,92394.97
2022-08-20T08:16:30.672Z,92400.97
2022-08-20T08:18:57.961Z,92401.03
2022-08-20T08:21:25.242Z,92392.78
2022-08-20T08:23:52.509Z,92398.06
2022-08-20T08:26:19.792Z,92396.97
2022-08-20T08:28:47.080Z,92403.13
2022-08-20T08:31:14.352Z,92401.84
2022-08-20T08:33:41.621Z,92397.84
2022-08-20T08:36:08.918Z,92402.66
2022-08-20T08:38:36.192Z,92400.78
2022-08-20T08:41:03.485Z,92403.94
2022-08-20T08:43:31.826Z,92401.16
2022-08-20T08:45:59.275Z,92397.66
2022-08-20T08:48:26.668Z,92398.63
2022-08-20T08:50:54.840Z,92399.97
2022-08-20T08:53:22.240Z,92404.06
2022-08-20T08:55:49.534Z,92394.94
2022-08-20T08:58:17.557Z,92407.69
2022-08-20T09:00:56.115Z,92403.56
2022-08-20T09:03:24.572Z,92410.78
2022-08-20T09:05:51.965Z,92413.41
2022-08-20T09:08:19.234Z,92409.72
2022-08-20T09:10:46.518Z,92409.34
2022-08-20T09:13:13.811Z,92419.81
2022-08-20T09:15:41.117Z,92415.88
2022-08-20T09:18:08.379Z,92419.81
2022-08-20T09:20:35.672Z,92424.53
2022-08-20T09:23:02.950Z,92419.28
2022-08-20T09:25:30.278Z,92426.66
2022-08-20T09:27:57.613Z,92423.75
2022-08-20T09:30:24.891Z,92429.09
2022-08-20T09:32:52.187Z,92419.28
2022-08-20T09:35:19.489Z,92425.47
2022-08-20T09:37:46.766Z,92427.25
2022-08-20T09:40:20.977Z,92419.34
2022-08-20T09:42:48.791Z,92420.09
2022-08-20T09:45:16.099Z,92424.84
2022-08-20T09:47:43.861Z,92413.56
2022-08-20T09:50:24.189Z,92416.53
2022-08-20T09:52:51.696Z,92407.00
2022-08-20T09:55:21.043Z,92409.59
2022-08-20T09:57:48.438Z,92405.63
2022-08-20T10:00:15.714Z,92411.13
2022-08-20T10:02:42.983Z,92408.75
2022-08-20T10:05:12.391Z,92409.31
2022-08-20T10:07:39.816Z,92403.47
2022-08-20T10:10:07.092Z,92403.53
2022-08-20T10:12:34.397Z,92412.59
2022-08-20T10:15:01.663Z,92410.63
2022-08-20T10:17:28.982Z,92405.78
2022-08-20T10:19:56.275Z,92401.75
2022-08-20T10:22:23.544Z,92400.50
2022-08-20T10:24:50.804Z,92401.16
2022-08-20T10:27:18.092Z,92405.19
2022-08-20T10:29:46.969Z,92400.69
2022-08-20T10:32:14.452Z,92393.97
2022-08-20T10:34:41.739Z,92390.25
2022-08-20T10:37:09.065Z,92394.72
2022-08-20T10:39:36.391Z,92393.38
2022-08-20T10:42:03.683Z,92397.91
2022-08-20T10:44:31.209Z,92393.06
2022-08-20T10:46:58.494Z,92390.00
2022-08-20T10:49:25.769Z,92394.34
2022-08-20T10:51:53.071Z,92388.22
2022-08-20T10:54:20.355Z,92393.31
2022-08-20T10:56:47.629Z,92394.97
2022-08-20T10:59:14.908Z,92383.94
2022-08-20T11:01:42.240Z,92394.06
2022-08-20T11:04:09.594Z,92381.69
2022-08-20T11:06:36.871Z,92391.22
2022-08-20T11:09:04.138Z,92386.03
2022-08-20T11:11:37.027Z,92384.66
2022-08-20T11:14:04.336Z,92386.19
2022-08-20T11:16:31.613Z,92381.88
2022-08-20T11:18:58.913Z,92378.41
2022-08-20T11:21:26.181Z,92381.69
2022-08-20T11:23:53.467Z,92380.31
2022-08-20T11:26:20.764Z,92376.66
2022-08-20T11:28:48.045Z,92369.75
2022-08-20T11:31:15.340Z,92369.38
2022-08-20T11:33:42.657Z,92362.16
2022-08-20T11:36:09.958Z,92362.44
2022-08-20T11:38:38.499Z,92361.94
2022-08-20T11:41:05.767Z,92368.38
2022-08-20T11:43:33.064Z,92365.00
2022-08-20T11:46:00.356Z,92362.84
2022-08-20T11:48:27.636Z,92362.94
2022-08-20T11:50:54.906Z,92370.03
2022-08-20T11:53:22.310Z,92363.19
2022-08-20T11:55:49.707Z,92366.66
2022-08-20T11:58:16.976Z,92362.16
2022-08-20T12:00:44.271Z,92361.34
2022-08-20T12:03:11.899Z,92372.66
2022-08-20T12:05:39.437Z,92376.53
2022-08-20T12:08:06.719Z,92372.53
2022-08-20T12:10:34.008Z,92374.03
2022-08-20T12:13:02.625Z,92372.91
2022-08-20T12:15:32.221Z,92373.78
2022-08-20T12:17:59.517Z,92372.81
2022-08-20T12:20:26.797Z,92378.63
2022-08-20T12:22:54.184Z,92380.09
2022-08-20T12:25:21.455Z,92375.88
2022-08-20T12:27:48.737Z,92383.41
2022-08-20T12:30:16.103Z,92379.44
2022-08-20T12:32:43.361Z,92380.25
2022-08-20T12:35:10.628Z,92379.25
2022-08-20T12:37:37.919Z,92384.41
2022-08-20T12:40:05.368Z,92371.88
2022-08-20T12:42:32.699Z,92369.78
2022-08-20T12:44:59.984Z,92373.19
2022-08-20T12:47:27.254Z,92378.72
2022-08-20T12:49:54.516Z,92381.75
2022-08-20T12:52:21.813Z,92375.59
2022-08-20T12:54:49.209Z,92377.53
2022-08-20T12:57:18.440Z,92382.25
2022-08-20T12:59:45.756Z,92384.16
2022-08-20T13:02:15.813Z,92387.69
2022-08-20T13:04:46.205Z,92388.06
2022-08-20T13:07:13.485Z,92381.44
2022-08-20T13:09:40.795Z,92383.75
2022-08-20T13:12:08.069Z,92383.47
2022-08-20T13:14:35.335Z,92380.88
2022-08-20T13:17:02.644Z,92380.53
2022-08-20T13:19:29.923Z,92385.22
2022-08-20T13:21:57.207Z,92383.72
2022-08-20T13:24:24.491Z,92378.66
2022-08-20T13:26:51.883Z,92378.38
2022-08-20T13:29:19.151Z,92378.81
2022-08-20T13:31:46.438Z,92382.13
2022-08-20T13:34:13.732Z,92378.53
2022-08-20T13:36:41.037Z,92378.03
2022-08-20T13:39:10.639Z,92371.13
2022-08-20T13:41:37.911Z,92367.97
2022-08-20T13:44:05.187Z,92360.75
2022-08-20T13:46:32.469Z,92361.72
2022-08-20T13:48:59.739Z,92363.91
2022-08-20T13:51:27.617Z,92362.88
2022-08-20T13:53:57.838Z,92363.75
2022-08-20T13:56:25.112Z,92359.81
2022-08-20T13:58:53.098Z,92346.41
2022-08-20T14:01:20.524Z,92358.94
2022-08-20T14:03:47.877Z,92352.50
2022-08-20T14:06:15.769Z,92365.28
2022-08-20T14:08:43.062Z,92366.94
2022-08-20T14:11:12.832Z,92363.81
2022-08-20T14:13:45.000Z,92363.44
2022-08-20T14:16:21.076Z,92356.19
2022-08-20T14:18:53.002Z,92362.03
2022-08-20T14:21:20.342Z,92359.91
2022-08-20T14:23:47.630Z,92362.16
2022-08-20T14:26:14.946Z,92361.38
2022-08-20T14:28:42.225Z,92364.34
2022-08-20T14:31:09.515Z,92354.50
2022-08-20T14:33:38.453Z,92359.50
2022-08-20T14:36:07.526Z,92366.44
2022-08-20T14:38:34.810Z,92358.94
2022-08-20T14:41:02.128Z,92360.72
2022-08-20T14:43:29.407Z,92345.13
2022-08-20T14:45:56.673Z,92358.00
2022-08-20T14:48:23.963Z,92356.88
2022-08-20T14:50:51.216Z,92351.50
2022-08-20T14:53:18.481Z,92346.75
2022-08-20T14:55:45.769Z,92344.69
2022-08-20T14:58:13.022Z,92341.88
2022-08-20T15:00:40.362Z,92348.47
2022-08-20T15:03:07.639Z,92335.66
2022-08-20T15:05:34.933Z,92334.13
2022-08-20T15:08:07.052Z,92331.59
2022-08-20T15:10:34.318Z,92334.47
2022-08-20T15:13:01.599Z,92337.66
2022-08-20T15:15:28.881Z,92338.22
2022-08-20T15:17:56.184Z,92331.63
2022-08-20T15:20:23.475Z,92332.13
2022-08-20T15:22:50.816Z,92330.81
2022-08-20T15:25:18.112Z,92329.38
2022-08-20T15:27:45.398Z,92335.28
2022-08-20T15:30:12.667Z,92324.50
2022-08-20T15:32:40.065Z,92319.50
2022-08-20T15:35:07.343Z,92326.84
2022-08-20T15:37:34.610Z,92324.22
2022-08-20T15:40:01.969Z,92319.53
2022-08-20T15:42:29.317Z,92321.22
2022-08-20T15:44:56.581Z,92311.38
2022-08-20T15:47:23.876Z,92314.22
2022-08-20T15:49:51.173Z,92311.44
2022-08-20T15:52:18.427Z,92313.69
2022-08-20T15:54:52.424Z,92311.63
2022-08-20T15:57:22.629Z,92312.97
2022-08-20T15:59:50.035Z,92317.13
2022-08-20T16:02:17.313Z,92323.25
2022-08-20T16:04:44.587Z,92314.22
2022-08-20T16:07:11.880Z,92325.72
2022-08-20T16:09:39.149Z,92332.22
2022-08-20T16:12:06.431Z,92330.78
2022-08-20T16:14:33.735Z,92327.56
2022-08-20T16:17:01.576Z,92335.75
2022-08-20T16:19:29.145Z,92340.59
2022-08-20T16:21:56.431Z,92338.56
2022-08-20T16:24:23.700Z,92342.34
2022-08-20T16:26:50.966Z,92343.41
2022-08-20T16:29:18.265Z,92339.81
2022-08-20T16:31:45.537Z,92337.78
2022-08-20T16:34:33.062Z,92345.78
2022-08-20T16:37:03.165Z,92339.59
2022-08-20T16:39:30.952Z,92340.38
2022-08-20T16:42:05.664Z,92342.88
2022-08-20T16:44:33.392Z,92338.78
2022-08-20T16:47:00.684Z,92334.22
2022-08-20T16:49:40.861Z,92331.00
2022-08-20T16:52:08.173Z,92334.03
2022-08-20T16:54:35.558Z,92324.44
2022-08-20T16:57:02.824Z,92339.56
2022-08-20T16:59:30.103Z,92336.13
2022-08-20T17:01:57.436Z,92342.66
2022-08-20T17:04:28.973Z,92341.47
2022-08-20T17:06:56.236Z,92331.59
2022-08-20T17:09:23.519Z,92337.41
2022-08-20T17:11:51.518Z,92333.75
2022-08-20T17:14:18.793Z,92336.13
2022-08-20T17:16:46.067Z,92323.88
2022-08-20T17:19:15.362Z,92328.94
2022-08-20T17:21:42.641Z,92328.03
2022-08-20T17:24:09.904Z,92328.88
2022-08-20T17:26:44.173Z,92330.38
2022-08-20T17:29:11.483Z,92326.00
2022-08-20T17:31:39.366Z,92322.25
2022-08-20T17:34:06.739Z,92325.63
2022-08-20T17:36:34.753Z,92325.34
2022-08-20T17:39:02.019Z,92322.13
2022-08-20T17:41:29.285Z,92325.56
2022-08-20T17:43:56.669Z,92311.94
2022-08-20T17:46:23.939Z,92318.53
2022-08-20T17:48:51.203Z,92318.28
2022-08-20T17:51:18.495Z,92313.38
2022-08-20T17:53:46.084Z,92315.63
2022-08-20T17:56:13.344Z,92312.44
2022-08-20T17:58:40.609Z,92311.78
2022-08-20T18:01:22.022Z,92315.53
2022-08-20T18:03:49.389Z,92317.56
2022-08-20T18:06:16.694Z,92303.69
2022-08-20T18:08:43.957Z,92304.44
2022-08-20T18:11:11.226Z,92299.50
2022-08-20T18:13:44.979Z,92301.59
2022-08-20T18:16:16.898Z,92304.38
2022-08-20T18:18:57.138Z,92311.47
2022-08-20T18:21:24.706Z,92316.19
2022-08-20T18:23:52.002Z,92317.78
2022-08-20T18:26:19.270Z,92317.13
2022-08-20T18:28:46.552Z,92314.97
2022-08-20T18:31:13.853Z,92311.03
2022-08-20T18:33:41.131Z,92316.59
2022-08-20T18:36:08.403Z,92315.81
2022-08-20T18:38:35.800Z,92311.50
2022-08-20T18:41:03.056Z,92316.47
2022-08-20T18:43:30.400Z,92325.09
2022-08-20T18:45:57.741Z,92321.53
2022-08-20T18:48:25.005Z,92319.81
2022-08-20T18:50:52.268Z,92330.38
2022-08-20T18:53:19.715Z,92330.31
2022-08-20T18:55:46.976Z,92328.00
2022-08-20T18:58:14.228Z,92326.66
2022-08-20T19:00:41.536Z,92318.69
2022-08-20T19:03:08.837Z,92327.47
2022-08-20T19:05:36.095Z,92327.47
2022-08-20T19:08:03.373Z,92331.56
2022-08-20T19:10:31.041Z,92337.06
2022-08-20T19:12:58.542Z,92335.72
2022-08-20T19:15:25.988Z,92335.44
2022-08-20T19:17:53.485Z,92339.31
2022-08-20T19:20:20.761Z,92339.78
2022-08-20T19:22:48.043Z,92340.41
2022-08-20T19:25:15.310Z,92338.53
2022-08-20T19:27:42.577Z,92342.91
2022-08-20T19:30:09.851Z,92332.13
2022-08-20T19:32:39.830Z,92338.53
2022-08-20T19:35:11.805Z,92340.06
2022-08-20T19:37:44.301Z,92345.63
2022-08-20T19:40:18.786Z,92342.00
2022-08-20T19:42:46.417Z,92351.72
2022-08-20T19:45:13.709Z,92358.44
2022-08-20T19:47:41.100Z,92352.13
2022-08-20T19:50:08.367Z,92356.69
2022-08-20T19:52:35.628Z,92360.94
2022-08-20T19:55:04.153Z,92358.59
2022-08-20T19:57:31.606Z,92362.09
2022-08-20T19:59:58.886Z,92353.03
2022-08-20T20:02:26.181Z,92359.94
2022-08-20T20:04:55.524Z,92360.34
2022-08-20T20:07:25.187Z,92360.44
2022-08-20T20:09:52.551Z,92368.34
2022-08-20T20:12:22.700Z,92367.31
2022-08-20T20:14:50.443Z,92361.16
2022-08-20T20:17:22.534Z,92363.13
2022-08-20T20:19:50.442Z,92363.44
2022-08-20T20:22:19.626Z,92362.38
2022-08-20T20:24:47.717Z,92372.53
2022-08-20T20:27:15.137Z,92366.03
2022-08-20T20:29:48.263Z,92357.50
2022-08-20T20:32:15.534Z,92369.50
2022-08-20T20:34:55.371Z,92360.03
2022-08-20T20:37:34.786Z,92361.22
2022-08-20T20:40:19.076Z,92360.13
2022-08-20T20:42:46.727Z,92354.19
2022-08-20T20:45:13.997Z,92354.13
2022-08-20T20:47:41.309Z,92354.06
2022-08-20T20:50:10.070Z,92354.06
2022-08-20T20:52:37.358Z,92349.00
2022-08-20T20:55:04.631Z,92350.56
2022-08-20T20:57:36.292Z,92347.72
2022-08-20T21:00:05.611Z,92348.47
2022-08-20T21:02:34.109Z,92355.38
2022-08-20T21:05:01.390Z,92345.44
2022-08-20T21:07:28.670Z,92348.44
2022-08-20T21:09:55.975Z,92349.25
2022-08-20T21:12:23.248Z,92346.41
2022-08-20T21:14:50.549Z,92352.16
2022-08-20T21:17:17.829Z,92352.38
2022-08-20T21:19:45.509Z,92346.88
2022-08-20T21:22:12.826Z,92349.91
2022-08-20T21:24:40.105Z,92343.34
2022-08-20T21:27:07.376Z,92342.69
2022-08-20T21:29:34.765Z,92344.50
2022-08-20T21:32:02.075Z,92344.97
2022-08-20T21:34:29.343Z,92344.94
2022-08-20T21:36:56.657Z,92345.34
2022-08-20T21:39:26.620Z,92344.34
2022-08-20T21:41:53.886Z,92334.44
2022-08-20T21:44:22.212Z,92338.97
2022-08-20T21:46:52.132Z,92333.94
2022-08-20T21:49:19.409Z,92341.72
2022-08-20T21:51:46.697Z,92342.19
2022-08-20T21:54:13.965Z,92343.56
2022-08-20T21:56:41.240Z,92336.31
2022-08-20T21:59:08.529Z,92337.88
2022-08-20T22:01:35.881Z,92336.34
2022-08-20T22:04:03.214Z,92336.06
2022-08-20T22:06:30.482Z,92340.31
2022-08-20T22:08:57.764Z,92340.69
2022-08-20T22:11:25.066Z,92343.78
2022-08-20T22:13:52.349Z,92340.38
2022-08-20T22:16:19.636Z,92341.19
2022-08-20T22:18:46.910Z,92347.34
2022-08-20T22:21:16.619Z,92342.44
2022-08-20T22:23:43.884Z,92335.97
2022-08-20T22:26:11.161Z,92338.19
2022-08-20T22:28:38.452Z,92323.94
2022-08-20T22:31:05.726Z,92324.38
2022-08-20T22:33:33.060Z,92327.75
2022-08-20T22:36:00.328Z,92325.16
2022-08-20T22:38:27.604Z,92330.16
2022-08-20T22:40:54.888Z,92331.22
2022-08-20T22:43:22.181Z,92330.41
2022-08-20T22:45:49.481Z,92322.88
2022-08-20T22:48:16.751Z,92318.63
2022-08-20T22:50:44.029Z,92320.94
2022-08-20T22:53:11.325Z,92313.00
2022-08-20T22:55:38.611Z,92311.50
2022-08-20T22:58:06.190Z,92315.78
2022-08-20T23:03:49.631Z,92315.47
2022-08-20T23:06:16.914Z,92314.78
2022-08-20T23:08:44.294Z,92315.53
2022-08-20T23:11:11.569Z,92318.19
2022-08-20T23:13:38.844Z,92310.94
2022-08-20T23:16:06.145Z,92308.31
2022-08-20T23:18:33.413Z,92309.50
2022-08-20T23:21:00.672Z,92301.19
2022-08-20T23:23:27.973Z,92298.16
2022-08-20T23:25:55.241Z,92298.50
2022-08-20T23:28:22.620Z,92292.75
2022-08-20T23:30:49.893Z,92290.16
2022-08-20T23:33:17.160Z,92298.84
2022-08-20T23:35:44.450Z,92298.84
2022-08-20T23:38:11.729Z,92293.41
2022-08-20T23:40:39.216Z,92291.47
2022-08-20T23:43:06.485Z,92288.00
2022-08-20T23:45:33.762Z,92288.72
2022-08-20T23:48:01.724Z,92287.91
2022-08-20T23:50:29.009Z,92289.94
2022-08-20T23:52:56.471Z,92289.59
2022-08-20T23:55:23.938Z,92286.97
2022-08-20T23:57:51.236Z,92282.63
